createdAt,value
2018-01-22T00:01:31.696Z,7.12
2018-01-22T00:04:02.317Z,7.40
2018-01-22T00:06:32.774Z,7.57
2018-01-22T00:09:02.602Z,8.20
2018-01-22T00:11:33.827Z,8.25
2018-01-22T00:14:03.651Z,8.65
2018-01-22T00:16:33.508Z,8.43
2018-01-22T00:19:03.365Z,7.75
2018-01-22T00:21:37.472Z,9.50
2018-01-22T00:24:07.142Z,8.40
2018-01-22T00:26:37.263Z,11.10
2018-01-22T00:29:07.004Z,9.27
2018-01-22T00:31:37.648Z,9.90
2018-01-22T00:34:12.169Z,8.75
2018-01-22T00:36:43.687Z,8.35
2018-01-22T00:39:14.317Z,9.65
2018-01-22T00:41:44.010Z,8.73
2018-01-22T00:44:14.050Z,8.82
2018-01-22T00:46:43.715Z,9.05
2018-01-22T00:49:14.454Z,8.10
2018-01-22T00:51:44.386Z,8.23
2018-01-22T00:54:14.022Z,9.93
2018-01-22T00:56:43.706Z,9.02
2018-01-22T00:59:14.687Z,8.95
2018-01-22T01:01:45.310Z,8.48
2018-01-22T01:04:15.159Z,8.77
2018-01-22T01:06:44.876Z,9.15
2018-01-22T01:09:14.479Z,7.90
2018-01-22T01:11:44.355Z,7.05
2018-01-22T01:14:13.995Z,8.57
2018-01-22T01:16:43.864Z,7.68
2018-01-22T01:19:13.876Z,7.43
2018-01-22T01:21:46.026Z,7.55
2018-01-22T01:24:16.946Z,6.93
2018-01-22T01:26:46.603Z,8.48
2018-01-22T01:29:16.310Z,7.45
2018-01-22T01:31:46.206Z,7.68
2018-01-22T01:34:15.896Z,7.82
2018-01-22T01:36:53.376Z,7.22
2018-01-22T01:39:24.105Z,7.03
2018-01-22T01:41:58.018Z,6.53
2018-01-22T01:44:29.305Z,7.20
2018-01-22T01:46:58.911Z,8.13
2018-01-22T01:49:29.911Z,6.70
2018-01-22T01:51:59.628Z,6.53
2018-01-22T01:54:29.721Z,6.00
2018-01-22T01:57:00.376Z,7.05
2018-01-22T01:59:30.446Z,6.00
2018-01-22T02:02:01.430Z,5.45
2018-01-22T02:04:31.323Z,6.20
2018-01-22T02:07:02.126Z,6.43
2018-01-22T02:09:31.943Z,5.93
2018-01-22T02:12:01.630Z,6.75
2018-01-22T02:14:31.453Z,5.37
2018-01-22T02:17:02.254Z,5.97
2018-01-22T02:19:32.918Z,6.32
2018-01-22T02:22:03.599Z,5.90
2018-01-22T02:24:34.108Z,6.07
2018-01-22T02:27:04.705Z,5.95
2018-01-22T02:29:36.583Z,5.70
2018-01-22T02:32:06.988Z,6.20
2018-01-22T02:34:36.868Z,7.00
2018-01-22T02:37:07.476Z,6.30
2018-01-22T02:39:37.560Z,6.20
2018-01-22T02:42:07.467Z,6.57
2018-01-22T02:44:37.905Z,5.95
2018-01-22T02:47:08.701Z,6.00
2018-01-22T02:49:41.207Z,5.82
2018-01-22T02:52:10.744Z,5.65
2018-01-22T02:54:41.436Z,5.60
2018-01-22T02:57:11.110Z,5.75
2018-01-22T02:59:40.721Z,5.82
2018-01-22T03:02:12.335Z,4.85
2018-01-22T03:04:43.052Z,5.30
2018-01-22T03:07:12.938Z,6.00
2018-01-22T03:09:43.443Z,6.47
2018-01-22T03:12:14.295Z,6.05
2018-01-22T03:14:44.768Z,5.07
2018-01-22T03:17:14.678Z,5.25
2018-01-22T03:19:45.488Z,5.97
2018-01-22T03:22:16.001Z,6.25
2018-01-22T03:24:54.800Z,6.28
2018-01-22T03:27:24.718Z,5.55
2018-01-22T03:29:54.527Z,4.82
2018-01-22T03:32:24.387Z,4.68
2018-01-22T03:35:02.391Z,5.47
2018-01-22T03:37:33.070Z,5.20
2018-01-22T03:40:02.710Z,6.35
2018-01-22T03:42:33.374Z,4.82
2018-01-22T03:45:03.909Z,5.00
2018-01-22T03:47:33.732Z,5.05
2018-01-22T03:50:03.426Z,5.37
2018-01-22T03:52:34.352Z,4.72
2018-01-22T03:55:04.853Z,5.22
2018-01-22T03:57:41.770Z,5.47
2018-01-22T04:00:12.459Z,4.65
2018-01-22T04:02:42.393Z,5.85
2018-01-22T04:05:12.020Z,5.60
2018-01-22T04:07:42.943Z,5.37
2018-01-22T04:10:12.920Z,5.22
2018-01-22T04:12:42.601Z,5.60
2018-01-22T04:15:13.327Z,6.32
2018-01-22T04:17:43.907Z,5.93
2018-01-22T04:20:13.766Z,5.85
2018-01-22T04:22:45.833Z,6.40
2018-01-22T04:25:17.247Z,6.07
2018-01-22T04:27:47.820Z,6.68
2018-01-22T04:30:18.430Z,6.68
2018-01-22T04:32:48.163Z,7.03
2018-01-22T04:35:18.163Z,6.43
2018-01-22T04:37:48.267Z,6.37
2018-01-22T04:40:17.936Z,6.40
2018-01-22T04:42:47.861Z,6.22
2018-01-22T04:45:17.763Z,6.22
2018-01-22T04:47:48.650Z,6.22
2018-01-22T04:50:19.593Z,6.35
2018-01-22T04:52:50.134Z,7.45
2018-01-22T04:55:20.430Z,7.18
2018-01-22T04:57:50.336Z,6.22
2018-01-22T05:00:20.054Z,6.85
2018-01-22T05:02:51.407Z,6.45
2018-01-22T05:05:21.234Z,7.00
2018-01-22T05:07:51.381Z,7.10
2018-01-22T05:10:21.974Z,6.18
2018-01-22T05:12:51.698Z,7.25
2018-01-22T05:15:21.621Z,6.80
2018-01-22T05:17:51.620Z,6.25
2018-01-22T05:20:23.454Z,5.75
2018-01-22T05:22:53.342Z,5.95
2018-01-22T05:25:24.792Z,5.85
2018-01-22T05:27:54.462Z,5.65
2018-01-22T05:30:24.274Z,6.12
2018-01-22T05:32:55.347Z,6.37
2018-01-22T05:35:25.833Z,5.75
2018-01-22T05:38:03.983Z,5.28
2018-01-22T05:40:34.704Z,5.47
2018-01-22T05:43:04.627Z,5.47
2018-01-22T05:45:34.874Z,6.05
2018-01-22T05:48:04.303Z,5.93
2018-01-22T05:50:33.487Z,5.90
2018-01-22T05:53:03.016Z,6.20
2018-01-22T05:55:33.208Z,6.37
2018-01-22T05:58:03.249Z,6.55
2018-01-22T06:00:33.389Z,6.57
2018-01-22T06:03:04.031Z,5.82
2018-01-22T06:05:33.915Z,7.00
2018-01-22T06:08:03.767Z,5.65
2018-01-22T06:10:33.806Z,6.90
2018-01-22T06:13:04.429Z,7.20
2018-01-22T06:15:35.049Z,8.10
2018-01-22T06:18:05.899Z,7.70
2018-01-22T06:20:36.765Z,7.97
2018-01-22T06:23:06.542Z,10.30
2018-01-22T06:25:39.545Z,10.50
2018-01-22T06:28:09.527Z,10.57
2018-01-22T06:30:40.109Z,10.93
2018-01-22T06:33:11.967Z,10.77
2018-01-22T06:35:43.914Z,10.75
2018-01-22T06:38:14.629Z,11.23
2018-01-22T06:40:44.307Z,11.05
2018-01-22T06:43:14.595Z,11.50
2018-01-22T06:45:44.122Z,10.85
2018-01-22T06:48:13.590Z,9.80
2018-01-22T06:50:44.851Z,9.60
2018-01-22T06:53:15.586Z,10.50
2018-01-22T06:55:45.052Z,10.55
2018-01-22T06:58:14.630Z,10.02
2018-01-22T07:00:44.765Z,9.48
2018-01-22T07:03:14.323Z,9.85
2018-01-22T07:05:43.828Z,12.00
2018-01-22T07:08:14.883Z,11.50
2018-01-22T07:10:44.562Z,9.80
2018-01-22T07:13:15.686Z,11.00
2018-01-22T07:15:45.099Z,9.82
2018-01-22T07:18:14.550Z,10.70
2018-01-22T07:20:45.550Z,10.90
2018-01-22T07:23:14.270Z,12.48
2018-01-22T07:28:33.127Z,10.02
2018-01-22T07:31:03.130Z,10.18
2018-01-22T07:33:33.514Z,10.70
2018-01-22T07:36:04.358Z,9.95
2018-01-22T07:38:32.630Z,9.05
2018-01-22T07:41:02.188Z,11.80
2018-01-22T07:43:32.512Z,10.82
2018-01-22T07:46:01.582Z,13.85
2018-01-22T07:48:31.545Z,13.40
2018-01-22T07:51:02.044Z,14.07
2018-01-22T07:53:31.011Z,13.55
2018-01-22T07:55:59.903Z,13.55
2018-01-22T07:58:31.408Z,16.45
2018-01-22T08:01:02.672Z,15.88
2018-01-22T08:03:32.197Z,17.75
2018-01-22T08:06:00.713Z,14.30
2018-01-22T08:08:30.197Z,15.98
2018-01-22T08:11:00.349Z,17.62
2018-01-22T08:13:33.705Z,16.48
2018-01-22T08:16:05.832Z,15.40
2018-01-22T08:18:45.125Z,15.93
2018-01-22T08:21:14.883Z,14.90
2018-01-22T08:23:44.540Z,14.63
2018-01-22T08:26:18.376Z,14.15
2018-01-22T08:28:47.817Z,16.42
2018-01-22T08:31:16.935Z,14.18
2018-01-22T08:33:47.132Z,15.45
2018-01-22T08:36:26.093Z,15.20
2018-01-22T08:38:54.929Z,14.07
2018-01-22T08:41:24.380Z,15.07
2018-01-22T08:43:52.988Z,16.85
2018-01-22T08:46:22.871Z,15.55
2018-01-22T08:48:53.157Z,15.32
2018-01-22T08:51:23.523Z,13.95
2018-01-22T08:53:52.441Z,17.10
2018-01-22T08:56:24.937Z,15.52
2018-01-22T08:58:54.339Z,14.77
2018-01-22T09:01:23.269Z,14.13
2018-01-22T09:03:55.053Z,15.82
2018-01-22T09:06:25.211Z,15.10
2018-01-22T09:08:56.560Z,15.07
2018-01-22T09:11:26.631Z,15.85
2018-01-22T09:13:57.140Z,13.77
2018-01-22T09:16:26.455Z,15.30
2018-01-22T09:18:55.572Z,15.00
2018-01-22T09:21:24.950Z,16.80
2018-01-22T09:23:53.943Z,16.15
2018-01-22T09:26:23.402Z,15.10
2018-01-22T09:28:52.349Z,16.67
2018-01-22T09:31:21.098Z,17.85
2018-01-22T09:34:08.286Z,17.10
2018-01-22T09:36:45.774Z,17.23
2018-01-22T09:39:15.012Z,18.45
2018-01-22T09:41:45.188Z,16.50
2018-01-22T09:44:15.381Z,16.00
2018-01-22T09:46:43.529Z,17.23
2018-01-22T09:49:14.227Z,17.27
2018-01-22T09:51:44.223Z,16.50
2018-01-22T09:54:14.030Z,15.55
2018-01-22T09:56:44.551Z,17.37
2018-01-22T09:59:14.881Z,16.77
2018-01-22T10:01:43.228Z,15.32
2018-01-22T10:04:12.704Z,15.98
2018-01-22T10:06:42.056Z,19.25
2018-01-22T10:09:11.366Z,16.02
2018-01-22T10:11:40.940Z,16.85
2018-01-22T10:14:10.194Z,17.70
2018-01-22T10:16:39.341Z,18.23
2018-01-22T10:19:09.449Z,17.55
2018-01-22T10:21:40.104Z,18.45
2018-01-22T10:24:18.535Z,17.17
2018-01-22T10:26:49.059Z,18.70
2018-01-22T10:29:20.502Z,17.15
2018-01-22T10:31:49.473Z,19.40
2018-01-22T10:34:19.405Z,20.58
2018-01-22T10:36:48.495Z,20.23
2018-01-22T10:39:18.122Z,23.15
2018-01-22T10:41:46.410Z,25.67
2018-01-22T10:44:25.393Z,24.08
2018-01-22T10:49:38.633Z,21.67
2018-01-22T10:52:09.790Z,18.25
2018-01-22T10:54:39.738Z,18.87
2018-01-22T10:57:09.336Z,18.52
2018-01-22T10:59:39.629Z,15.20
2018-01-22T11:02:09.961Z,16.25
2018-01-22T11:04:38.884Z,17.02
2018-01-22T11:07:09.280Z,15.95
2018-01-22T11:09:38.547Z,15.73
2018-01-22T11:12:08.295Z,15.10
2018-01-22T11:14:37.358Z,16.10
2018-01-22T11:17:06.642Z,15.60
2018-01-22T11:19:35.961Z,14.38
2018-01-22T11:22:05.365Z,16.80
2018-01-22T11:24:51.556Z,15.88
2018-01-22T11:27:21.909Z,15.02
2018-01-22T11:29:51.435Z,16.85
2018-01-22T11:32:21.567Z,17.70
2018-01-22T11:34:50.914Z,16.27
2018-01-22T11:37:20.019Z,17.50
2018-01-22T11:39:49.349Z,18.30
2018-01-22T11:42:18.866Z,18.33
2018-01-22T11:44:47.662Z,20.05
2018-01-22T11:47:18.673Z,18.08
2018-01-22T11:49:47.153Z,17.55
2018-01-22T11:52:17.375Z,18.60
2018-01-22T11:54:48.023Z,19.33
2018-01-22T11:57:21.039Z,18.95
2018-01-22T11:59:50.277Z,17.70
2018-01-22T12:02:19.634Z,18.85
2018-01-22T12:04:48.199Z,19.80
2018-01-22T12:07:18.443Z,19.77
2018-01-22T12:09:47.197Z,19.95
2018-01-22T12:14:53.865Z,17.85
2018-01-22T12:17:22.641Z,19.52
2018-01-22T12:19:50.882Z,22.20
2018-01-22T12:22:21.008Z,20.48
2018-01-22T12:24:50.055Z,19.17
2018-01-22T12:27:21.934Z,23.80
2018-01-22T12:29:52.947Z,22.02
2018-01-22T12:32:24.240Z,19.90
2018-01-22T12:34:54.233Z,18.90
2018-01-22T12:37:23.577Z,18.48
2018-01-22T12:39:52.761Z,18.30
2018-01-22T12:42:22.244Z,18.98
2018-01-22T12:44:53.419Z,17.95
2018-01-22T12:47:24.459Z,17.77
2018-01-22T12:49:55.947Z,18.33
2018-01-22T12:52:25.102Z,19.87
2018-01-22T12:54:55.902Z,18.42
2018-01-22T12:57:25.297Z,20.15
2018-01-22T12:59:58.292Z,22.30
2018-01-22T13:02:27.334Z,22.73
2018-01-22T13:04:56.348Z,19.62
2018-01-22T13:07:35.427Z,21.35
2018-01-22T13:10:04.631Z,21.40
2018-01-22T13:12:34.088Z,23.42
2018-01-22T13:15:12.468Z,21.50
2018-01-22T13:17:43.137Z,23.90
2018-01-22T13:20:13.214Z,23.08
2018-01-22T13:22:43.914Z,22.75
2018-01-22T13:25:13.063Z,25.55
2018-01-22T13:27:42.793Z,23.62
2018-01-22T13:30:12.281Z,23.60
2018-01-22T13:32:54.176Z,24.80
2018-01-22T13:35:23.500Z,21.80
2018-01-22T13:37:53.213Z,22.33
2018-01-22T13:40:44.398Z,21.55
2018-01-22T13:43:14.448Z,20.48
2018-01-22T13:45:43.871Z,22.25
2018-01-22T13:48:13.197Z,21.60
2018-01-22T13:50:41.879Z,22.00
2018-01-22T13:53:11.835Z,21.12
2018-01-22T13:55:41.256Z,18.00
2018-01-22T13:58:10.470Z,22.10
2018-01-22T14:00:39.756Z,20.55
2018-01-22T14:03:09.293Z,20.25
2018-01-22T14:05:38.813Z,21.52
2018-01-22T14:08:09.295Z,24.05
2018-01-22T14:10:38.858Z,22.73
2018-01-22T14:13:08.371Z,21.50
2018-01-22T14:15:36.960Z,24.08
2018-01-22T14:18:07.036Z,24.37
2018-01-22T14:20:35.636Z,21.35
2018-01-22T14:23:04.913Z,25.65
2018-01-22T14:25:43.212Z,23.02
2018-01-22T14:28:12.882Z,25.85
2018-01-22T14:30:42.329Z,23.45
2018-01-22T14:33:12.170Z,23.27
2018-01-22T14:35:40.743Z,22.95
2018-01-22T14:38:10.090Z,23.80
2018-01-22T14:40:39.933Z,23.70
2018-01-22T14:43:11.197Z,26.62
2018-01-22T14:45:44.062Z,24.63
2018-01-22T14:48:19.587Z,23.35
2018-01-22T14:50:48.615Z,23.80
2018-01-22T14:53:17.789Z,26.08
2018-01-22T14:55:46.942Z,24.02
2018-01-22T14:58:18.049Z,23.80
2018-01-22T15:00:47.230Z,24.05
2018-01-22T15:03:16.357Z,24.60
2018-01-22T15:05:45.705Z,24.60
2018-01-22T15:08:14.852Z,23.23
2018-01-22T15:10:44.041Z,24.83
2018-01-22T15:13:13.361Z,23.87
2018-01-22T15:15:42.710Z,25.00
2018-01-22T15:18:12.118Z,24.33
2018-01-22T15:20:43.891Z,25.70
2018-01-22T15:23:18.574Z,24.12
2018-01-22T15:25:48.754Z,23.65
2018-01-22T15:28:18.361Z,26.00
2018-01-22T15:30:47.157Z,26.58
2018-01-22T15:33:17.287Z,27.80
2018-01-22T15:35:47.699Z,25.33
2018-01-22T15:38:17.393Z,23.70
2018-01-22T15:40:48.038Z,24.45
2018-01-22T15:43:18.506Z,27.40
2018-01-22T15:48:24.950Z,24.92
2018-01-22T15:50:53.721Z,25.48
2018-01-22T15:53:24.775Z,28.60
2018-01-22T15:55:55.376Z,26.42
2018-01-22T15:58:25.051Z,27.52
2018-01-22T16:00:53.429Z,27.70
2018-01-22T16:03:22.279Z,26.87
2018-01-22T16:06:01.837Z,25.42
2018-01-22T16:08:32.859Z,23.42
2018-01-22T16:11:18.568Z,26.65
2018-01-22T16:13:48.715Z,27.05
2018-01-22T16:16:17.351Z,26.48
2018-01-22T16:18:47.784Z,25.08
2018-01-22T16:21:16.778Z,26.30
2018-01-22T16:23:45.387Z,24.02
2018-01-22T16:26:27.782Z,24.63
2018-01-22T16:29:15.280Z,23.90
2018-01-22T16:32:00.660Z,21.83
2018-01-22T16:34:30.438Z,22.55
2018-01-22T16:36:58.397Z,19.67
2018-01-22T16:39:26.056Z,21.55
2018-01-22T16:41:53.697Z,21.98
2018-01-22T16:44:21.394Z,20.12
2018-01-22T16:46:54.613Z,20.90
2018-01-22T16:49:22.262Z,21.65
2018-01-22T16:51:51.818Z,22.65
2018-01-22T16:54:19.494Z,20.45
2018-01-22T16:56:47.152Z,22.73
2018-01-22T16:59:14.782Z,20.58
2018-01-22T17:01:42.407Z,20.33
2018-01-22T17:04:10.055Z,21.08
2018-01-22T17:06:37.794Z,21.83
2018-01-22T17:09:05.411Z,21.50
2018-01-22T17:11:33.833Z,21.10
2018-01-22T17:14:01.800Z,20.67
2018-01-22T17:16:29.398Z,23.95
2018-01-22T17:18:57.017Z,23.45
2018-01-22T17:21:24.610Z,22.27
2018-01-22T17:23:52.212Z,22.37
2018-01-22T17:26:19.972Z,22.60
2018-01-22T17:28:47.588Z,19.95
2018-01-22T17:31:15.230Z,19.83
2018-01-22T17:33:45.046Z,27.85
2018-01-22T17:36:12.686Z,25.70
2018-01-22T17:38:41.160Z,20.77
2018-01-22T17:41:08.735Z,19.48
2018-01-22T17:43:36.873Z,19.35
2018-01-22T17:46:04.505Z,18.33
2018-01-22T17:48:32.116Z,19.05
2018-01-22T17:50:59.724Z,19.52
2018-01-22T17:53:27.319Z,19.05
2018-01-22T17:55:54.919Z,18.77
2018-01-22T17:58:25.482Z,20.20
2018-01-22T18:00:56.153Z,19.35
2018-01-22T18:03:25.959Z,20.88
2018-01-22T18:05:55.618Z,21.17
2018-01-22T18:08:26.004Z,18.08
2018-01-22T18:10:56.258Z,20.75
2018-01-22T18:13:26.933Z,22.60
2018-01-22T18:15:56.752Z,20.73
2018-01-22T18:18:26.597Z,20.45
2018-01-22T18:20:56.299Z,22.20
2018-01-22T18:23:26.865Z,22.45
2018-01-22T18:25:57.202Z,22.45
2018-01-22T18:28:28.349Z,25.48
2018-01-22T18:30:59.064Z,27.08
2018-01-22T18:33:30.742Z,26.55
2018-01-22T18:36:07.787Z,23.98
2018-01-22T18:38:36.094Z,24.83
2018-01-22T18:41:06.015Z,24.92
2018-01-22T18:43:38.497Z,24.90
2018-01-22T18:46:08.388Z,27.90
2018-01-22T18:48:38.974Z,24.42
2018-01-22T18:51:08.842Z,23.70
2018-01-22T18:53:38.718Z,23.98
2018-01-22T18:56:08.330Z,25.25
2018-01-22T18:58:38.235Z,31.35
2018-01-22T19:01:08.142Z,28.20
2018-01-22T19:03:37.793Z,28.77
2018-01-22T19:06:08.659Z,24.90
2018-01-22T19:08:38.853Z,27.73
2018-01-22T19:11:08.741Z,25.83
2018-01-22T19:13:38.559Z,28.12
2018-01-22T19:16:08.300Z,31.92
2018-01-22T19:18:39.955Z,29.67
2018-01-22T19:21:10.910Z,29.80
2018-01-22T19:23:40.581Z,30.48
2018-01-22T19:26:10.512Z,32.45
2018-01-22T19:28:40.297Z,29.77
2018-01-22T19:31:11.080Z,29.63
2018-01-22T19:33:41.550Z,30.52
2018-01-22T19:36:11.364Z,32.38
2018-01-22T19:38:40.382Z,27.05
2018-01-22T19:41:10.103Z,28.38
2018-01-22T19:43:40.242Z,26.50
2018-01-22T19:46:10.671Z,25.92
2018-01-22T19:48:41.169Z,27.52
2018-01-22T19:51:10.859Z,26.67
2018-01-22T19:53:40.709Z,24.50
2018-01-22T19:56:11.909Z,29.77
2018-01-22T19:58:41.771Z,26.10
2018-01-22T20:01:12.269Z,25.50
2018-01-22T20:03:42.170Z,23.55
2018-01-22T20:06:12.101Z,24.17
2018-01-22T20:08:41.950Z,25.02
2018-01-22T20:11:12.580Z,21.90
2018-01-22T20:13:43.087Z,19.87
2018-01-22T20:16:13.082Z,18.15
2018-01-22T20:18:42.802Z,21.23
2018-01-22T20:21:14.525Z,19.37
2018-01-22T20:23:44.157Z,18.75
2018-01-22T20:26:14.020Z,18.87
2018-01-22T20:28:43.750Z,17.50
2018-01-22T20:31:20.671Z,18.20
2018-01-22T20:33:50.787Z,17.52
2018-01-22T20:36:22.312Z,18.33
2018-01-22T20:38:53.421Z,17.45
2018-01-22T20:41:24.062Z,18.05
2018-01-22T20:43:54.705Z,19.15
2018-01-22T20:46:24.411Z,18.55
2018-01-22T20:48:54.289Z,17.83
2018-01-22T20:51:24.150Z,17.48
2018-01-22T20:53:55.083Z,19.75
2018-01-22T20:56:25.989Z,18.08
2018-01-22T20:58:56.287Z,18.87
2018-01-22T21:01:26.256Z,17.87
2018-01-22T21:03:55.956Z,18.17
2018-01-22T21:06:31.399Z,19.90
2018-01-22T21:09:02.046Z,19.55
2018-01-22T21:11:32.854Z,19.33
2018-01-22T21:14:03.533Z,17.98
2018-01-22T21:16:34.418Z,18.42
2018-01-22T21:19:04.144Z,18.55
2018-01-22T21:21:36.208Z,18.08
2018-01-22T21:24:06.686Z,19.33
2018-01-22T21:26:36.565Z,15.85
2018-01-22T21:29:06.280Z,18.37
2018-01-22T21:31:36.124Z,17.15
2018-01-22T21:34:06.784Z,17.10
2018-01-22T21:36:36.621Z,17.70
2018-01-22T21:39:06.851Z,17.70
2018-01-22T21:41:37.311Z,16.98
2018-01-22T21:44:07.132Z,17.17
2018-01-22T21:46:37.011Z,17.17
2018-01-22T21:49:06.672Z,18.02
2018-01-22T21:51:36.403Z,17.52
2018-01-22T21:54:06.333Z,16.90
2018-01-22T21:56:35.988Z,19.80
2018-01-22T21:59:05.830Z,18.80
2018-01-22T22:01:35.523Z,20.35
2018-01-22T22:04:05.302Z,20.02
2018-01-22T22:06:35.654Z,20.83
2018-01-22T22:09:05.811Z,19.35
2018-01-22T22:11:36.346Z,19.35
2018-01-22T22:14:06.125Z,17.98
2018-01-22T22:16:35.901Z,15.13
2018-01-22T22:19:08.019Z,16.17
2018-01-22T22:21:37.667Z,16.50
2018-01-22T22:24:08.276Z,16.48
2018-01-22T22:26:38.934Z,16.50
2018-01-22T22:29:09.460Z,15.00
2018-01-22T22:31:39.995Z,14.68
2018-01-22T22:34:10.408Z,15.88
2018-01-22T22:36:41.058Z,14.48
2018-01-22T22:39:11.554Z,15.50
2018-01-22T22:41:41.737Z,14.57
2018-01-22T22:44:12.430Z,14.57
2018-01-22T22:46:41.979Z,12.27
2018-01-22T22:49:11.800Z,12.37
2018-01-22T22:51:41.449Z,13.25
2018-01-22T22:54:12.281Z,11.82
2018-01-22T22:56:41.925Z,11.18
2018-01-22T22:59:12.770Z,10.20
2018-01-22T23:01:43.874Z,10.80
2018-01-22T23:04:16.213Z,9.88
2018-01-22T23:06:45.842Z,9.90
2018-01-22T23:09:15.697Z,8.05
2018-01-22T23:11:46.134Z,8.90
2018-01-22T23:14:16.030Z,8.75
2018-01-22T23:16:46.311Z,8.95
2018-01-22T23:19:16.258Z,8.63
2018-01-22T23:21:45.933Z,8.07
2018-01-22T23:24:15.616Z,6.95
2018-01-22T23:26:45.481Z,7.53
2018-01-22T23:29:15.221Z,7.30
2018-01-22T23:31:45.713Z,7.05
2018-01-22T23:34:15.411Z,6.10
2018-01-22T23:36:46.090Z,7.20
2018-01-22T23:39:16.494Z,6.95
2018-01-22T23:41:46.316Z,6.85
2018-01-22T23:44:15.903Z,6.75
2018-01-22T23:46:46.675Z,6.85
2018-01-22T23:49:17.101Z,5.20
2018-01-22T23:51:48.274Z,5.53
2018-01-22T23:54:21.953Z,5.43
2018-01-22T23:56:52.579Z,6.05
2018-01-22T23:59:23.032Z,6.05
